sensor_id;sensor_type;location;lat;lon;timestamp;P1;P2;P0
70436;PMS5003;57877;39.750;-104.894;2023-08-07T00:01:30;19;18;
70436;PMS5003;57877;39.750;-104.894;2023-08-07T00:03:55;18;18;
70436;PMS5003;57877;39.750;-104.894;2023-08-07T00:06:20;20;20;
70436;PMS5003;57877;39.750;-104.894;2023-08-07T00:08:45;17;17;
70436;PMS5003;57877;39.750;-104.894;2023-08-07T00:11:10;15;15;
70436;PMS5003;57877;39.750;-104.894;2023-08-07T00:13:35;16;16;
70436;PMS5003;57877;39.750;-104.894;2023-08-07T00:16:00;18;18;
70436;PMS5003;57877;39.750;-104.894;2023-08-07T00:18:25;18;18;
70436;PMS5003;57877;39.750;-104.894;2023-08-07T00:20:50;19;18;
70436;PMS5003;57877;39.750;-104.894;2023-08-07T00:23:16;22;20;
70436;PMS5003;57877;39.750;-104.894;2023-08-07T00:25:41;19;18;
70436;PMS5003;57877;39.750;-104.894;2023-08-07T00:28:06;17;17;
70436;PMS5003;57877;39.750;-104.894;2023-08-07T00:30:31;19;19;
70436;PMS5003;57877;39.750;-104.894;2023-08-07T00:32:56;19;19;
70436;PMS5003;57877;39.750;-104.894;2023-08-07T00:35:21;21;21;
70436;PMS5003;57877;39.750;-104.894;2023-08-07T00:37:46;17;16;
70436;PMS5003;57877;39.750;-104.894;2023-08-07T00:40:11;20;19;
70436;PMS5003;57877;39.750;-104.894;2023-08-07T00:42:36;20;20;
70436;PMS5003;57877;39.750;-104.894;2023-08-07T00:45:01;18;17;
70436;PMS5003;57877;39.750;-104.894;2023-08-07T00:47:26;18;16;
70436;PMS5003;57877;39.750;-104.894;2023-08-07T00:49:51;17;17;
70436;PMS5003;57877;39.750;-104.894;2023-08-07T00:52:16;20;18;
70436;PMS5003;57877;39.750;-104.894;2023-08-07T00:54:41;15;15;
70436;PMS5003;57877;39.750;-104.894;2023-08-07T00:57:08;18;17;
70436;PMS5003;57877;39.750;-104.894;2023-08-07T00:59:31;19;18;
70436;PMS5003;57877;39.750;-104.894;2023-08-07T01:01:56;20;20;
70436;PMS5003;57877;39.750;-104.894;2023-08-07T01:04:21;19;19;
70436;PMS5003;57877;39.750;-104.894;2023-08-07T01:06:46;20;18;
70436;PMS5003;57877;39.750;-104.894;2023-08-07T01:09:11;20;20;
70436;PMS5003;57877;39.750;-104.894;2023-08-07T01:11:39;20;19;
70436;PMS5003;57877;39.750;-104.894;2023-08-07T01:14:04;18;18;
70436;PMS5003;57877;39.750;-104.894;2023-08-07T01:16:28;19;18;
70436;PMS5003;57877;39.750;-104.894;2023-08-07T01:18:52;20;18;
70436;PMS5003;57877;39.750;-104.894;2023-08-07T01:21:18;18;18;
70436;PMS5003;57877;39.750;-104.894;2023-08-07T01:23:42;16;16;
70436;PMS5003;57877;39.750;-104.894;2023-08-07T01:26:07;20;18;
70436;PMS5003;57877;39.750;-104.894;2023-08-07T01:28:32;19;19;
70436;PMS5003;57877;39.750;-104.894;2023-08-07T01:30:59;19;18;
70436;PMS5003;57877;39.750;-104.894;2023-08-07T01:33:22;25;24;
70436;PMS5003;57877;39.750;-104.894;2023-08-07T01:35:47;30;29;
70436;PMS5003;57877;39.750;-104.894;2023-08-07T01:38:12;32;30;
70436;PMS5003;57877;39.750;-104.894;2023-08-07T01:40:37;25;25;
70436;PMS5003;57877;39.750;-104.894;2023-08-07T01:43:02;24;24;
70436;PMS5003;57877;39.750;-104.894;2023-08-07T01:45:27;25;25;
70436;PMS5003;57877;39.750;-104.894;2023-08-07T01:47:52;27;26;
70436;PMS5003;57877;39.750;-104.894;2023-08-07T01:50:17;23;22;
70436;PMS5003;57877;39.750;-104.894;2023-08-07T01:52:42;22;20;
70436;PMS5003;57877;39.750;-104.894;2023-08-07T01:55:07;22;20;
70436;PMS5003;57877;39.750;-104.894;2023-08-07T01:57:32;21;21;
70436;PMS5003;57877;39.750;-104.894;2023-08-07T01:59:58;23;23;
70436;PMS5003;57877;39.750;-104.894;2023-08-07T02:02:22;24;23;
70436;PMS5003;57877;39.750;-104.894;2023-08-07T02:04:47;23;23;
70436;PMS5003;57877;39.750;-104.894;2023-08-07T02:07:12;21;20;
70436;PMS5003;57877;39.750;-104.894;2023-08-07T02:09:38;22;21;
70436;PMS5003;57877;39.750;-104.894;2023-08-07T02:12:03;21;21;
70436;PMS5003;57877;39.750;-104.894;2023-08-07T02:14:28;20;20;
70436;PMS5003;57877;39.750;-104.894;2023-08-07T02:16:52;22;22;
70436;PMS5003;57877;39.750;-104.894;2023-08-07T02:19:18;23;22;
70436;PMS5003;57877;39.750;-104.894;2023-08-07T02:21:43;24;24;
70436;PMS5003;57877;39.750;-104.894;2023-08-07T02:24:08;25;25;
70436;PMS5003;57877;39.750;-104.894;2023-08-07T02:26:33;27;26;
70436;PMS5003;57877;39.750;-104.894;2023-08-07T02:28:58;27;26;
70436;PMS5003;57877;39.750;-104.894;2023-08-07T02:31:23;27;26;
70436;PMS5003;57877;39.750;-104.894;2023-08-07T02:33:48;26;25;
70436;PMS5003;57877;39.750;-104.894;2023-08-07T02:36:13;27;27;
70436;PMS5003;57877;39.750;-104.894;2023-08-07T02:38:38;28;26;
70436;PMS5003;57877;39.750;-104.894;2023-08-07T02:41:03;28;28;
70436;PMS5003;57877;39.750;-104.894;2023-08-07T02:43:28;26;26;
70436;PMS5003;57877;39.750;-104.894;2023-08-07T02:45:53;30;27;
70436;PMS5003;57877;39.750;-104.894;2023-08-07T02:48:19;27;26;
70436;PMS5003;57877;39.750;-104.894;2023-08-07T02:50:44;27;27;
70436;PMS5003;57877;39.750;-104.894;2023-08-07T02:53:09;26;25;
70436;PMS5003;57877;39.750;-104.894;2023-08-07T02:55:34;29;27;
70436;PMS5003;57877;39.750;-104.894;2023-08-07T02:57:59;29;29;
70436;PMS5003;57877;39.750;-104.894;2023-08-07T03:00:24;26;26;
70436;PMS5003;57877;39.750;-104.894;2023-08-07T03:02:49;29;28;
70436;PMS5003;57877;39.750;-104.894;2023-08-07T03:05:14;26;26;
70436;PMS5003;57877;39.750;-104.894;2023-08-07T03:07:39;28;28;
70436;PMS5003;57877;39.750;-104.894;2023-08-07T03:10:05;30;28;
70436;PMS5003;57877;39.750;-104.894;2023-08-07T03:12:29;26;26;
70436;PMS5003;57877;39.750;-104.894;2023-08-07T03:14:54;25;24;
70436;PMS5003;57877;39.750;-104.894;2023-08-07T03:17:19;28;27;
70436;PMS5003;57877;39.750;-104.894;2023-08-07T03:19:44;28;27;
70436;PMS5003;57877;39.750;-104.894;2023-08-07T03:22:09;28;27;
70436;PMS5003;57877;39.750;-104.894;2023-08-07T03:24:34;30;29;
70436;PMS5003;57877;39.750;-104.894;2023-08-07T03:26:59;26;25;
70436;PMS5003;57877;39.750;-104.894;2023-08-07T03:29:24;28;26;
70436;PMS5003;57877;39.750;-104.894;2023-08-07T03:31:49;31;29;
70436;PMS5003;57877;39.750;-104.894;2023-08-07T03:34:14;29;28;
70436;PMS5003;57877;39.750;-104.894;2023-08-07T03:36:39;29;28;
70436;PMS5003;57877;39.750;-104.894;2023-08-07T03:39:04;29;27;
70436;PMS5003;57877;39.750;-104.894;2023-08-07T03:41:29;31;29;
70436;PMS5003;57877;39.750;-104.894;2023-08-07T03:43:54;30;29;
70436;PMS5003;57877;39.750;-104.894;2023-08-07T03:46:19;34;31;
70436;PMS5003;57877;39.750;-104.894;2023-08-07T03:48:44;29;29;
70436;PMS5003;57877;39.750;-104.894;2023-08-07T03:51:09;28;26;
70436;PMS5003;57877;39.750;-104.894;2023-08-07T03:53:34;26;25;
70436;PMS5003;57877;39.750;-104.894;2023-08-07T03:55:59;28;27;
70436;PMS5003;57877;39.750;-104.894;2023-08-07T03:58:24;27;27;
70436;PMS5003;57877;39.750;-104.894;2023-08-07T04:00:50;27;26;
70436;PMS5003;57877;39.750;-104.894;2023-08-07T04:03:15;28;27;
70436;PMS5003;57877;39.750;-104.894;2023-08-07T04:05:40;27;27;
70436;PMS5003;57877;39.750;-104.894;2023-08-07T04:08:06;26;25;
70436;PMS5003;57877;39.750;-104.894;2023-08-07T04:10:31;26;25;
70436;PMS5003;57877;39.750;-104.894;2023-08-07T04:12:56;25;24;
70436;PMS5003;57877;39.750;-104.894;2023-08-07T04:15:21;26;26;
70436;PMS5003;57877;39.750;-104.894;2023-08-07T04:17:46;22;22;
70436;PMS5003;57877;39.750;-104.894;2023-08-07T04:20:11;24;24;
70436;PMS5003;57877;39.750;-104.894;2023-08-07T04:22:37;25;25;
70436;PMS5003;57877;39.750;-104.894;2023-08-07T04:25:02;23;22;
70436;PMS5003;57877;39.750;-104.894;2023-08-07T04:27:27;24;24;
70436;PMS5003;57877;39.750;-104.894;2023-08-07T04:29:52;23;23;
70436;PMS5003;57877;39.750;-104.894;2023-08-07T04:32:17;21;21;
70436;PMS5003;57877;39.750;-104.894;2023-08-07T04:34:42;22;22;
70436;PMS5003;57877;39.750;-104.894;2023-08-07T04:37:07;22;21;
70436;PMS5003;57877;39.750;-104.894;2023-08-07T04:39:32;21;20;
70436;PMS5003;57877;39.750;-104.894;2023-08-07T04:41:57;22;22;
70436;PMS5003;57877;39.750;-104.894;2023-08-07T04:44:22;23;22;
70436;PMS5003;57877;39.750;-104.894;2023-08-07T04:46:47;22;21;
70436;PMS5003;57877;39.750;-104.894;2023-08-07T04:49:12;21;21;
70436;PMS5003;57877;39.750;-104.894;2023-08-07T04:51:37;20;19;
70436;PMS5003;57877;39.750;-104.894;2023-08-07T04:54:02;21;21;
70436;PMS5003;57877;39.750;-104.894;2023-08-07T04:56:27;17;17;
70436;PMS5003;57877;39.750;-104.894;2023-08-07T04:58:53;19;18;
70436;PMS5003;57877;39.750;-104.894;2023-08-07T05:01:18;18;17;
70436;PMS5003;57877;39.750;-104.894;2023-08-07T05:03:43;18;17;
70436;PMS5003;57877;39.750;-104.894;2023-08-07T05:06:08;17;16;
70436;PMS5003;57877;39.750;-104.894;2023-08-07T05:08:33;16;16;
70436;PMS5003;57877;39.750;-104.894;2023-08-07T05:10:58;15;15;
70436;PMS5003;57877;39.750;-104.894;2023-08-07T05:13:23;19;16;
70436;PMS5003;57877;39.750;-104.894;2023-08-07T05:15:48;16;16;
70436;PMS5003;57877;39.750;-104.894;2023-08-07T05:18:13;16;16;
70436;PMS5003;57877;39.750;-104.894;2023-08-07T05:20:38;17;16;
70436;PMS5003;57877;39.750;-104.894;2023-08-07T05:23:03;18;17;
70436;PMS5003;57877;39.750;-104.894;2023-08-07T05:25:28;19;17;
70436;PMS5003;57877;39.750;-104.894;2023-08-07T05:27:53;12;12;
70436;PMS5003;57877;39.750;-104.894;2023-08-07T05:30:18;17;16;
70436;PMS5003;57877;39.750;-104.894;2023-08-07T05:32:43;16;15;
70436;PMS5003;57877;39.750;-104.894;2023-08-07T05:35:08;19;19;
70436;PMS5003;57877;39.750;-104.894;2023-08-07T05:37:33;16;16;
70436;PMS5003;57877;39.750;-104.894;2023-08-07T05:39:58;18;17;
70436;PMS5003;57877;39.750;-104.894;2023-08-07T05:42:24;16;15;
70436;PMS5003;57877;39.750;-104.894;2023-08-07T05:44:48;16;15;
70436;PMS5003;57877;39.750;-104.894;2023-08-07T05:47:13;17;15;
70436;PMS5003;57877;39.750;-104.894;2023-08-07T05:49:38;18;17;
70436;PMS5003;57877;39.750;-104.894;2023-08-07T05:52:04;14;12;
70436;PMS5003;57877;39.750;-104.894;2023-08-07T05:54:28;15;14;
70436;PMS5003;57877;39.750;-104.894;2023-08-07T05:56:54;12;11;
70436;PMS5003;57877;39.750;-104.894;2023-08-07T05:59:19;11;10;
70436;PMS5003;57877;39.750;-104.894;2023-08-07T06:01:44;10;10;
70436;PMS5003;57877;39.750;-104.894;2023-08-07T06:04:09;9;9;
70436;PMS5003;57877;39.750;-104.894;2023-08-07T06:06:34;11;9;
70436;PMS5003;57877;39.750;-104.894;2023-08-07T06:08:59;9;9;
70436;PMS5003;57877;39.750;-104.894;2023-08-07T06:11:24;8;8;
70436;PMS5003;57877;39.750;-104.894;2023-08-07T06:13:49;11;11;
70436;PMS5003;57877;39.750;-104.894;2023-08-07T06:16:14;9;9;
70436;PMS5003;57877;39.750;-104.894;2023-08-07T06:18:39;8;8;
70436;PMS5003;57877;39.750;-104.894;2023-08-07T06:21:04;10;10;
70436;PMS5003;57877;39.750;-104.894;2023-08-07T06:23:29;7;7;
70436;PMS5003;57877;39.750;-104.894;2023-08-07T06:25:54;8;8;
70436;PMS5003;57877;39.750;-104.894;2023-08-07T06:28:19;6;6;
70436;PMS5003;57877;39.750;-104.894;2023-08-07T06:30:44;5;5;
70436;PMS5003;57877;39.750;-104.894;2023-08-07T06:33:10;7;7;
70436;PMS5003;57877;39.750;-104.894;2023-08-07T06:35:37;6;6;
70436;PMS5003;57877;39.750;-104.894;2023-08-07T06:37:59;8;7;
70436;PMS5003;57877;39.750;-104.894;2023-08-07T06:40:25;5;4;
70436;PMS5003;57877;39.750;-104.894;2023-08-07T06:42:50;5;5;
70436;PMS5003;57877;39.750;-104.894;2023-08-07T06:45:16;6;6;
70436;PMS5003;57877;39.750;-104.894;2023-08-07T06:47:42;6;6;
70436;PMS5003;57877;39.750;-104.894;2023-08-07T06:50:08;6;6;
70436;PMS5003;57877;39.750;-104.894;2023-08-07T06:52:34;4;4;
70436;PMS5003;57877;39.750;-104.894;2023-08-07T06:55:00;5;5;
70436;PMS5003;57877;39.750;-104.894;2023-08-07T06:57:26;4;4;
70436;PMS5003;57877;39.750;-104.894;2023-08-07T06:59:51;7;7;
70436;PMS5003;57877;39.750;-104.894;2023-08-07T07:02:17;4;4;
70436;PMS5003;57877;39.750;-104.894;2023-08-07T07:04:43;6;6;
70436;PMS5003;57877;39.750;-104.894;2023-08-07T07:07:09;4;4;
70436;PMS5003;57877;39.750;-104.894;2023-08-07T07:09:35;5;5;
70436;PMS5003;57877;39.750;-104.894;2023-08-07T07:12:01;6;5;
70436;PMS5003;57877;39.750;-104.894;2023-08-07T07:14:26;5;5;
70436;PMS5003;57877;39.750;-104.894;2023-08-07T07:16:51;6;5;
70436;PMS5003;57877;39.750;-104.894;2023-08-07T07:19:17;6;6;
70436;PMS5003;57877;39.750;-104.894;2023-08-07T07:21:42;2;2;
70436;PMS5003;57877;39.750;-104.894;2023-08-07T07:24:08;3;3;
70436;PMS5003;57877;39.750;-104.894;2023-08-07T07:26:34;3;3;
70436;PMS5003;57877;39.750;-104.894;2023-08-07T07:29:00;2;2;
70436;PMS5003;57877;39.750;-104.894;2023-08-07T07:31:25;3;3;
70436;PMS5003;57877;39.750;-104.894;2023-08-07T07:33:50;4;4;
70436;PMS5003;57877;39.750;-104.894;2023-08-07T07:36:16;4;3;
70436;PMS5003;57877;39.750;-104.894;2023-08-07T07:38:41;4;4;
70436;PMS5003;57877;39.750;-104.894;2023-08-07T07:41:07;2;2;
70436;PMS5003;57877;39.750;-104.894;2023-08-07T07:43:33;3;3;
70436;PMS5003;57877;39.750;-104.894;2023-08-07T07:45:59;4;4;
70436;PMS5003;57877;39.750;-104.894;2023-08-07T07:48:25;3;2;
70436;PMS5003;57877;39.750;-104.894;2023-08-07T07:50:51;5;5;
70436;PMS5003;57877;39.750;-104.894;2023-08-07T07:53:17;2;2;
70436;PMS5003;57877;39.750;-104.894;2023-08-07T07:55:46;2;2;
70436;PMS5003;57877;39.750;-104.894;2023-08-07T07:58:09;3;3;
70436;PMS5003;57877;39.750;-104.894;2023-08-07T08:00:34;3;3;
70436;PMS5003;57877;39.750;-104.894;2023-08-07T08:03:00;2;1;
70436;PMS5003;57877;39.750;-104.894;2023-08-07T08:05:25;3;3;
70436;PMS5003;57877;39.750;-104.894;2023-08-07T08:07:50;4;4;
70436;PMS5003;57877;39.750;-104.894;2023-08-07T08:10:16;5;5;
70436;PMS5003;57877;39.750;-104.894;2023-08-07T08:12:42;2;2;
70436;PMS5003;57877;39.750;-104.894;2023-08-07T08:15:08;3;3;
70436;PMS5003;57877;39.750;-104.894;2023-08-07T08:17:33;3;2;
70436;PMS5003;57877;39.750;-104.894;2023-08-07T08:19:58;4;3;
70436;PMS5003;57877;39.750;-104.894;2023-08-07T08:22:23;4;4;
70436;PMS5003;57877;39.750;-104.894;2023-08-07T08:24:48;5;5;
70436;PMS5003;57877;39.750;-104.894;2023-08-07T08:27:14;5;5;
70436;PMS5003;57877;39.750;-104.894;2023-08-07T08:29:38;5;4;
70436;PMS5003;57877;39.750;-104.894;2023-08-07T08:32:04;4;4;
70436;PMS5003;57877;39.750;-104.894;2023-08-07T08:34:29;4;4;
70436;PMS5003;57877;39.750;-104.894;2023-08-07T08:36:53;7;7;
70436;PMS5003;57877;39.750;-104.894;2023-08-07T08:39:19;7;7;
70436;PMS5003;57877;39.750;-104.894;2023-08-07T08:41:46;8;8;
70436;PMS5003;57877;39.750;-104.894;2023-08-07T08:44:11;6;6;
70436;PMS5003;57877;39.750;-104.894;2023-08-07T08:46:37;7;7;
70436;PMS5003;57877;39.750;-104.894;2023-08-07T08:49:03;6;6;
70436;PMS5003;57877;39.750;-104.894;2023-08-07T08:51:29;8;8;
70436;PMS5003;57877;39.750;-104.894;2023-08-07T08:53:54;7;7;
70436;PMS5003;57877;39.750;-104.894;2023-08-07T08:56:20;7;7;
70436;PMS5003;57877;39.750;-104.894;2023-08-07T08:58:46;5;5;
70436;PMS5003;57877;39.750;-104.894;2023-08-07T09:01:12;7;7;
70436;PMS5003;57877;39.750;-104.894;2023-08-07T09:03:38;6;6;
70436;PMS5003;57877;39.750;-104.894;2023-08-07T09:06:03;5;5;
70436;PMS5003;57877;39.750;-104.894;2023-08-07T09:08:28;4;4;
70436;PMS5003;57877;39.750;-104.894;2023-08-07T09:10:54;3;3;
70436;PMS5003;57877;39.750;-104.894;2023-08-07T09:13:21;4;4;
70436;PMS5003;57877;39.750;-104.894;2023-08-07T09:15:46;4;3;
70436;PMS5003;57877;39.750;-104.894;2023-08-07T09:18:12;4;4;
70436;PMS5003;57877;39.750;-104.894;2023-08-07T09:20:38;5;5;
70436;PMS5003;57877;39.750;-104.894;2023-08-07T09:23:04;5;5;
70436;PMS5003;57877;39.750;-104.894;2023-08-07T09:25:29;4;4;
70436;PMS5003;57877;39.750;-104.894;2023-08-07T09:27:55;5;5;
70436;PMS5003;57877;39.750;-104.894;2023-08-07T09:30:21;4;3;
70436;PMS5003;57877;39.750;-104.894;2023-08-07T09:32:47;6;6;
70436;PMS5003;57877;39.750;-104.894;2023-08-07T09:35:12;4;4;
70436;PMS5003;57877;39.750;-104.894;2023-08-07T09:37:38;4;4;
70436;PMS5003;57877;39.750;-104.894;2023-08-07T09:40:04;4;4;
70436;PMS5003;57877;39.750;-104.894;2023-08-07T09:42:30;5;4;
70436;PMS5003;57877;39.750;-104.894;2023-08-07T09:44:54;4;3;
70436;PMS5003;57877;39.750;-104.894;2023-08-07T09:47:20;4;4;
70436;PMS5003;57877;39.750;-104.894;2023-08-07T09:49:45;7;5;
70436;PMS5003;57877;39.750;-104.894;2023-08-07T09:52:11;7;6;
70436;PMS5003;57877;39.750;-104.894;2023-08-07T09:54:36;5;5;
70436;PMS5003;57877;39.750;-104.894;2023-08-07T09:57:01;6;6;
70436;PMS5003;57877;39.750;-104.894;2023-08-07T09:59:26;5;5;
70436;PMS5003;57877;39.750;-104.894;2023-08-07T10:01:50;4;4;
70436;PMS5003;57877;39.750;-104.894;2023-08-07T10:04:15;5;5;
70436;PMS5003;57877;39.750;-104.894;2023-08-07T10:06:41;6;6;
70436;PMS5003;57877;39.750;-104.894;2023-08-07T10:09:06;4;3;
70436;PMS5003;57877;39.750;-104.894;2023-08-07T10:11:31;5;5;
70436;PMS5003;57877;39.750;-104.894;2023-08-07T10:13:56;6;6;
70436;PMS5003;57877;39.750;-104.894;2023-08-07T10:16:21;11;8;
70436;PMS5003;57877;39.750;-104.894;2023-08-07T10:18:46;8;7;
70436;PMS5003;57877;39.750;-104.894;2023-08-07T10:21:11;16;15;
70436;PMS5003;57877;39.750;-104.894;2023-08-07T10:23:36;18;17;
70436;PMS5003;57877;39.750;-104.894;2023-08-07T10:26:01;22;22;
70436;PMS5003;57877;39.750;-104.894;2023-08-07T10:28:26;24;23;
70436;PMS5003;57877;39.750;-104.894;2023-08-07T10:30:51;25;24;
70436;PMS5003;57877;39.750;-104.894;2023-08-07T10:33:16;22;21;
70436;PMS5003;57877;39.750;-104.894;2023-08-07T10:35:44;23;23;
70436;PMS5003;57877;39.750;-104.894;2023-08-07T10:38:07;23;22;
70436;PMS5003;57877;39.750;-104.894;2023-08-07T10:40:32;26;25;
70436;PMS5003;57877;39.750;-104.894;2023-08-07T10:42:57;23;23;
70436;PMS5003;57877;39.750;-104.894;2023-08-07T10:45:22;25;24;
70436;PMS5003;57877;39.750;-104.894;2023-08-07T10:50:12;25;22;
70436;PMS5003;57877;39.750;-104.894;2023-08-07T10:52:38;24;23;
70436;PMS5003;57877;39.750;-104.894;2023-08-07T10:55:02;25;24;
70436;PMS5003;57877;39.750;-104.894;2023-08-07T10:57:28;23;22;
70436;PMS5003;57877;39.750;-104.894;2023-08-07T11:02:23;24;24;
70436;PMS5003;57877;39.750;-104.894;2023-08-07T11:04:43;28;27;
70436;PMS5003;57877;39.750;-104.894;2023-08-07T11:07:08;28;27;
70436;PMS5003;57877;39.750;-104.894;2023-08-07T11:09:33;32;31;
70436;PMS5003;57877;39.750;-104.894;2023-08-07T11:11:58;28;27;
70436;PMS5003;57877;39.750;-104.894;2023-08-07T11:14:23;26;25;
70436;PMS5003;57877;39.750;-104.894;2023-08-07T11:16:48;28;27;
70436;PMS5003;57877;39.750;-104.894;2023-08-07T11:19:14;31;28;
70436;PMS5003;57877;39.750;-104.894;2023-08-07T11:21:38;31;28;
70436;PMS5003;57877;39.750;-104.894;2023-08-07T11:24:03;29;29;
70436;PMS5003;57877;39.750;-104.894;2023-08-07T11:26:28;29;28;
70436;PMS5003;57877;39.750;-104.894;2023-08-07T11:28:54;31;31;
70436;PMS5003;57877;39.750;-104.894;2023-08-07T11:31:18;29;27;
70436;PMS5003;57877;39.750;-104.894;2023-08-07T11:33:44;27;25;
70436;PMS5003;57877;39.750;-104.894;2023-08-07T11:36:12;29;28;
70436;PMS5003;57877;39.750;-104.894;2023-08-07T11:38:35;29;28;
70436;PMS5003;57877;39.750;-104.894;2023-08-07T11:40:59;29;28;
70436;PMS5003;57877;39.750;-104.894;2023-08-07T11:43:24;28;27;
70436;PMS5003;57877;39.750;-104.894;2023-08-07T11:45:49;26;26;
70436;PMS5003;57877;39.750;-104.894;2023-08-07T11:48:14;28;26;
70436;PMS5003;57877;39.750;-104.894;2023-08-07T11:50:39;28;26;
70436;PMS5003;57877;39.750;-104.894;2023-08-07T11:53:04;27;26;
70436;PMS5003;57877;39.750;-104.894;2023-08-07T11:55:29;29;28;
70436;PMS5003;57877;39.750;-104.894;2023-08-07T11:57:54;29;28;
70436;PMS5003;57877;39.750;-104.894;2023-08-07T12:00:20;32;31;
70436;PMS5003;57877;39.750;-104.894;2023-08-07T12:02:45;30;29;
70436;PMS5003;57877;39.750;-104.894;2023-08-07T12:05:10;30;29;
70436;PMS5003;57877;39.750;-104.894;2023-08-07T12:07:35;32;32;
70436;PMS5003;57877;39.750;-104.894;2023-08-07T12:10:01;31;31;
70436;PMS5003;57877;39.750;-104.894;2023-08-07T12:12:25;31;30;
70436;PMS5003;57877;39.750;-104.894;2023-08-07T12:14:52;32;31;
70436;PMS5003;57877;39.750;-104.894;2023-08-07T12:17:16;34;33;
70436;PMS5003;57877;39.750;-104.894;2023-08-07T12:19:40;33;31;
70436;PMS5003;57877;39.750;-104.894;2023-08-07T12:22:06;32;30;
70436;PMS5003;57877;39.750;-104.894;2023-08-07T12:24:30;32;30;
70436;PMS5003;57877;39.750;-104.894;2023-08-07T12:26:55;32;31;
70436;PMS5003;57877;39.750;-104.894;2023-08-07T12:29:20;31;31;
70436;PMS5003;57877;39.750;-104.894;2023-08-07T12:31:45;32;31;
70436;PMS5003;57877;39.750;-104.894;2023-08-07T12:34:10;31;29;
70436;PMS5003;57877;39.750;-104.894;2023-08-07T12:36:35;30;29;
70436;PMS5003;57877;39.750;-104.894;2023-08-07T12:39:00;28;28;
70436;PMS5003;57877;39.750;-104.894;2023-08-07T12:41:25;28;26;
70436;PMS5003;57877;39.750;-104.894;2023-08-07T12:43:51;29;27;
70436;PMS5003;57877;39.750;-104.894;2023-08-07T12:46:16;31;28;
70436;PMS5003;57877;39.750;-104.894;2023-08-07T12:48:41;31;30;
70436;PMS5003;57877;39.750;-104.894;2023-08-07T12:51:07;28;27;
70436;PMS5003;57877;39.750;-104.894;2023-08-07T12:53:33;29;27;
70436;PMS5003;57877;39.750;-104.894;2023-08-07T12:55:59;31;30;
70436;PMS5003;57877;39.750;-104.894;2023-08-07T12:58:25;30;29;
70436;PMS5003;57877;39.750;-104.894;2023-08-07T13:00:50;31;29;
70436;PMS5003;57877;39.750;-104.894;2023-08-07T13:03:16;28;25;
70436;PMS5003;57877;39.750;-104.894;2023-08-07T13:05:41;29;27;
70436;PMS5003;57877;39.750;-104.894;2023-08-07T13:08:06;31;30;
70436;PMS5003;57877;39.750;-104.894;2023-08-07T13:10:32;29;29;
70436;PMS5003;57877;39.750;-104.894;2023-08-07T13:12:58;28;28;
70436;PMS5003;57877;39.750;-104.894;2023-08-07T13:15:24;29;28;
70436;PMS5003;57877;39.750;-104.894;2023-08-07T13:17:50;29;28;
70436;PMS5003;57877;39.750;-104.894;2023-08-07T13:20:16;29;28;
70436;PMS5003;57877;39.750;-104.894;2023-08-07T13:22:42;29;27;
70436;PMS5003;57877;39.750;-104.894;2023-08-07T13:25:09;34;31;
70436;PMS5003;57877;39.750;-104.894;2023-08-07T13:27:34;29;27;
70436;PMS5003;57877;39.750;-104.894;2023-08-07T13:30:00;31;27;
70436;PMS5003;57877;39.750;-104.894;2023-08-07T13:32:26;30;29;
70436;PMS5003;57877;39.750;-104.894;2023-08-07T13:34:52;28;27;
70436;PMS5003;57877;39.750;-104.894;2023-08-07T13:37:18;28;27;
70436;PMS5003;57877;39.750;-104.894;2023-08-07T13:39:44;31;29;
70436;PMS5003;57877;39.750;-104.894;2023-08-07T13:42:10;27;26;
70436;PMS5003;57877;39.750;-104.894;2023-08-07T13:44:36;31;29;
70436;PMS5003;57877;39.750;-104.894;2023-08-07T13:47:02;31;29;
70436;PMS5003;57877;39.750;-104.894;2023-08-07T13:49:28;28;27;
70436;PMS5003;57877;39.750;-104.894;2023-08-07T13:51:54;32;32;
70436;PMS5003;57877;39.750;-104.894;2023-08-07T13:54:20;31;30;
70436;PMS5003;57877;39.750;-104.894;2023-08-07T13:56:46;30;29;
70436;PMS5003;57877;39.750;-104.894;2023-08-07T13:59:12;32;30;
70436;PMS5003;57877;39.750;-104.894;2023-08-07T14:01:38;28;28;
70436;PMS5003;57877;39.750;-104.894;2023-08-07T14:04:04;30;29;
70436;PMS5003;57877;39.750;-104.894;2023-08-07T14:06:30;29;28;
70436;PMS5003;57877;39.750;-104.894;2023-08-07T14:08:56;26;24;
70436;PMS5003;57877;39.750;-104.894;2023-08-07T14:11:22;29;27;
70436;PMS5003;57877;39.750;-104.894;2023-08-07T14:13:48;27;26;
70436;PMS5003;57877;39.750;-104.894;2023-08-07T14:16:14;30;30;
70436;PMS5003;57877;39.750;-104.894;2023-08-07T14:18:40;27;26;
70436;PMS5003;57877;39.750;-104.894;2023-08-07T14:21:06;26;26;
70436;PMS5003;57877;39.750;-104.894;2023-08-07T14:23:32;30;28;
70436;PMS5003;57877;39.750;-104.894;2023-08-07T14:25:58;24;24;
70436;PMS5003;57877;39.750;-104.894;2023-08-07T14:28:24;29;27;
70436;PMS5003;57877;39.750;-104.894;2023-08-07T14:30:50;26;26;
70436;PMS5003;57877;39.750;-104.894;2023-08-07T14:33:16;25;25;
70436;PMS5003;57877;39.750;-104.894;2023-08-07T14:35:42;27;27;
70436;PMS5003;57877;39.750;-104.894;2023-08-07T14:38:08;23;23;
70436;PMS5003;57877;39.750;-104.894;2023-08-07T14:40:34;22;22;
70436;PMS5003;57877;39.750;-104.894;2023-08-07T14:43:00;23;22;
70436;PMS5003;57877;39.750;-104.894;2023-08-07T14:45:26;22;22;
70436;PMS5003;57877;39.750;-104.894;2023-08-07T14:47:52;24;24;
70436;PMS5003;57877;39.750;-104.894;2023-08-07T14:50:18;23;22;
70436;PMS5003;57877;39.750;-104.894;2023-08-07T14:52:44;19;18;
70436;PMS5003;57877;39.750;-104.894;2023-08-07T14:55:10;20;19;
70436;PMS5003;57877;39.750;-104.894;2023-08-07T14:57:36;20;20;
70436;PMS5003;57877;39.750;-104.894;2023-08-07T15:00:02;19;19;
70436;PMS5003;57877;39.750;-104.894;2023-08-07T15:02:27;17;15;
70436;PMS5003;57877;39.750;-104.894;2023-08-07T15:04:52;19;19;
70436;PMS5003;57877;39.750;-104.894;2023-08-07T15:07:17;18;16;
70436;PMS5003;57877;39.750;-104.894;2023-08-07T15:09:42;15;13;
70436;PMS5003;57877;39.750;-104.894;2023-08-07T15:12:08;16;15;
70436;PMS5003;57877;39.750;-104.894;2023-08-07T15:14:32;16;15;
70436;PMS5003;57877;39.750;-104.894;2023-08-07T15:16:57;19;17;
70436;PMS5003;57877;39.750;-104.894;2023-08-07T15:19:22;17;17;
70436;PMS5003;57877;39.750;-104.894;2023-08-07T15:21:49;17;16;
70436;PMS5003;57877;39.750;-104.894;2023-08-07T15:24:13;15;14;
70436;PMS5003;57877;39.750;-104.894;2023-08-07T15:26:38;17;16;
70436;PMS5003;57877;39.750;-104.894;2023-08-07T15:29:03;13;13;
70436;PMS5003;57877;39.750;-104.894;2023-08-07T15:31:28;15;12;